createdAt,value
2022-11-28T00:01:25.026Z,11.75
2022-11-28T00:03:52.726Z,13.15
2022-11-28T00:06:20.810Z,10.73
2022-11-28T00:08:48.251Z,11.45
2022-11-28T00:11:17.089Z,12.02
2022-11-28T00:13:45.267Z,11.70
2022-11-28T00:16:20.450Z,12.32
2022-11-28T00:18:49.186Z,11.20
2022-11-28T00:21:16.880Z,10.82
2022-11-28T00:23:46.404Z,9.13
2022-11-28T00:26:27.254Z,12.80
2022-11-28T00:28:56.245Z,11.38
2022-11-28T00:31:26.822Z,10.88
2022-11-28T00:33:54.932Z,10.95
2022-11-28T00:36:22.967Z,10.88
2022-11-28T00:38:51.142Z,10.13
2022-11-28T00:41:21.632Z,11.02
2022-11-28T00:43:50.530Z,10.00
2022-11-28T00:46:19.681Z,9.93
2022-11-28T00:48:47.112Z,11.85
2022-11-28T00:51:18.581Z,10.07
2022-11-28T00:53:48.147Z,9.70
2022-11-28T00:56:18.493Z,10.32
2022-11-28T00:58:47.559Z,10.65
2022-11-28T01:01:18.698Z,9.95
2022-11-28T01:03:47.841Z,10.25
2022-11-28T01:06:24.508Z,10.93
2022-11-28T01:08:52.289Z,11.00
2022-11-28T01:11:20.090Z,10.10
2022-11-28T01:13:47.889Z,10.07
2022-11-28T01:16:15.554Z,10.27
2022-11-28T01:18:42.964Z,9.95
2022-11-28T01:21:10.374Z,11.38
2022-11-28T01:23:37.745Z,11.77
2022-11-28T01:26:07.653Z,12.50
2022-11-28T01:28:35.794Z,10.52
2022-11-28T01:31:16.268Z,10.20
2022-11-28T01:33:43.804Z,11.82
2022-11-28T01:36:13.000Z,10.68
2022-11-28T01:38:40.764Z,10.57
2022-11-28T01:41:09.152Z,9.55
2022-11-28T01:43:37.050Z,10.02
2022-11-28T01:46:06.064Z,10.05
2022-11-28T01:48:40.118Z,10.45
2022-11-28T01:51:09.486Z,9.38
2022-11-28T01:53:41.514Z,10.18
2022-11-28T01:56:31.514Z,9.38
2022-11-28T01:59:04.469Z,11.93
2022-11-28T02:01:32.119Z,8.88
2022-11-28T02:04:00.045Z,11.85
2022-11-28T02:06:28.399Z,10.20
2022-11-28T02:08:56.427Z,10.23
2022-11-28T02:11:45.472Z,8.82
2022-11-28T02:14:49.974Z,9.43
2022-11-28T02:17:28.563Z,10.70
2022-11-28T02:19:58.500Z,9.80
2022-11-28T02:22:37.543Z,9.00
2022-11-28T02:25:08.659Z,9.55
2022-11-28T02:27:57.138Z,11.63
2022-11-28T02:30:39.062Z,9.77
2022-11-28T02:33:13.063Z,11.07
2022-11-28T02:36:10.431Z,8.68
2022-11-28T02:39:05.760Z,8.80
2022-11-28T02:41:58.141Z,8.73
2022-11-28T02:44:36.176Z,8.18
2022-11-28T02:47:09.697Z,9.80
2022-11-28T02:50:09.387Z,10.52
2022-11-28T02:52:42.025Z,8.45
2022-11-28T02:55:09.678Z,7.82
2022-11-28T02:57:48.377Z,9.25
2022-11-28T03:00:26.792Z,8.82
2022-11-28T03:03:09.003Z,9.40
2022-11-28T03:05:54.373Z,8.68
2022-11-28T03:08:39.832Z,9.18
2022-11-28T03:11:20.281Z,10.27
2022-11-28T03:14:01.585Z,8.73
2022-11-28T03:16:44.858Z,9.25
2022-11-28T03:19:25.552Z,9.05
2022-11-28T03:22:23.343Z,9.88
2022-11-28T03:25:28.636Z,10.55
2022-11-28T03:28:06.574Z,7.72
2022-11-28T03:30:52.754Z,8.98
2022-11-28T03:33:23.582Z,7.40
2022-11-28T03:35:58.036Z,9.02
2022-11-28T03:38:32.218Z,10.57
2022-11-28T03:41:03.376Z,8.77
2022-11-28T03:43:39.045Z,7.50
2022-11-28T03:46:11.365Z,9.65
2022-11-28T03:48:42.644Z,8.17
2022-11-28T03:51:18.519Z,7.82
2022-11-28T03:53:51.897Z,8.90
2022-11-28T03:56:30.477Z,10.82
2022-11-28T03:59:10.409Z,9.30
2022-11-28T04:01:53.600Z,7.75
2022-11-28T04:04:41.037Z,8.55
2022-11-28T04:07:28.212Z,9.20
2022-11-28T04:10:20.161Z,7.13
2022-11-28T04:12:56.913Z,8.40
2022-11-28T04:15:27.190Z,7.95
2022-11-28T04:18:03.057Z,8.95
2022-11-28T04:20:36.777Z,7.10
2022-11-28T04:23:10.808Z,7.68
2022-11-28T04:25:42.875Z,8.80
2022-11-28T04:28:16.221Z,6.95
2022-11-28T04:30:46.778Z,6.47
2022-11-28T04:33:17.968Z,7.45
2022-11-28T04:35:50.013Z,8.02
2022-11-28T04:38:17.901Z,9.85
2022-11-28T04:40:52.582Z,7.20
2022-11-28T04:43:27.731Z,8.05
2022-11-28T04:46:01.598Z,8.25
2022-11-28T04:48:34.120Z,8.75
2022-11-28T04:51:12.201Z,7.43
2022-11-28T04:53:54.307Z,7.15
2022-11-28T04:56:26.684Z,7.20
2022-11-28T04:58:54.088Z,8.73
2022-11-28T05:01:27.420Z,7.70
2022-11-28T05:03:55.349Z,8.60
2022-11-28T05:06:26.851Z,6.25
2022-11-28T05:08:54.151Z,8.48
2022-11-28T05:11:21.561Z,6.72
2022-11-28T05:13:48.778Z,7.57
2022-11-28T05:16:16.962Z,7.78
2022-11-28T05:18:44.522Z,6.72
2022-11-28T05:21:12.205Z,6.80
2022-11-28T05:23:41.277Z,8.10
2022-11-28T05:26:10.518Z,7.88
2022-11-28T05:28:38.716Z,7.20
2022-11-28T05:31:06.123Z,7.38
2022-11-28T05:33:33.580Z,8.73
2022-11-28T05:36:08.614Z,7.72
2022-11-28T05:38:39.879Z,8.35
2022-11-28T05:41:07.631Z,6.97
2022-11-28T05:43:35.033Z,7.53
2022-11-28T05:46:05.102Z,7.22
2022-11-28T05:48:32.608Z,8.10
2022-11-28T05:50:59.982Z,6.72
2022-11-28T05:53:27.290Z,6.53
2022-11-28T05:55:54.600Z,7.25
2022-11-28T05:58:21.936Z,7.30
2022-11-28T06:00:49.325Z,6.70
2022-11-28T06:03:16.699Z,6.80
2022-11-28T06:05:44.682Z,7.50
2022-11-28T06:08:12.717Z,6.78
2022-11-28T06:10:40.493Z,7.50
2022-11-28T06:13:08.011Z,7.00
2022-11-28T06:15:38.195Z,8.23
2022-11-28T06:18:06.178Z,7.05
2022-11-28T06:20:35.789Z,8.55
2022-11-28T06:23:03.090Z,8.45
2022-11-28T06:25:30.377Z,6.28
2022-11-28T06:27:57.652Z,6.43
2022-11-28T06:30:25.063Z,7.07
2022-11-28T06:32:52.321Z,8.85
2022-11-28T06:35:19.642Z,7.45
2022-11-28T06:37:48.258Z,7.75
2022-11-28T06:40:15.716Z,10.00
2022-11-28T06:42:43.007Z,7.13
2022-11-28T06:45:10.608Z,7.25
2022-11-28T06:47:38.048Z,8.30
2022-11-28T06:50:06.240Z,6.55
2022-11-28T06:52:33.474Z,5.15
2022-11-28T06:55:00.780Z,7.30
2022-11-28T06:57:28.046Z,6.72
2022-11-28T06:59:55.363Z,6.22
2022-11-28T07:02:25.202Z,6.35
2022-11-28T07:04:52.634Z,6.72
2022-11-28T07:07:20.078Z,6.55
2022-11-28T07:09:47.376Z,6.60
2022-11-28T07:12:14.851Z,7.07
2022-11-28T07:14:42.217Z,6.25
2022-11-28T07:17:09.541Z,5.57
2022-11-28T07:19:37.300Z,6.30
2022-11-28T07:22:04.496Z,6.45
2022-11-28T07:24:31.806Z,6.47
2022-11-28T07:26:59.107Z,6.82
2022-11-28T07:29:30.744Z,6.75
2022-11-28T07:31:58.012Z,6.78
2022-11-28T07:34:25.341Z,6.80
2022-11-28T07:36:52.636Z,7.78
2022-11-28T07:39:19.926Z,5.22
2022-11-28T07:41:47.248Z,5.85
2022-11-28T07:44:17.882Z,5.00
2022-11-28T07:46:46.126Z,5.72
2022-11-28T07:49:14.470Z,5.82
2022-11-28T07:51:42.171Z,7.13
2022-11-28T07:54:10.072Z,6.72
2022-11-28T07:57:11.699Z,7.03
2022-11-28T07:59:25.847Z,6.00
2022-11-28T08:01:54.116Z,7.28
2022-11-28T08:04:21.691Z,8.50
2022-11-28T08:06:49.162Z,8.57
2022-11-28T08:09:16.521Z,6.07
2022-11-28T08:11:43.831Z,6.35
2022-11-28T08:14:11.533Z,6.60
2022-11-28T08:16:41.312Z,8.32
2022-11-28T08:19:08.616Z,6.13
2022-11-28T08:21:36.619Z,7.75
2022-11-28T08:24:05.467Z,7.40
2022-11-28T08:26:33.149Z,8.43
2022-11-28T08:29:02.284Z,10.48
2022-11-28T08:31:35.716Z,8.75
2022-11-28T08:34:06.467Z,7.22
2022-11-28T08:36:33.967Z,8.13
2022-11-28T08:39:17.010Z,12.25
2022-11-28T08:41:49.891Z,8.63
2022-11-28T08:44:17.191Z,9.60
2022-11-28T08:46:44.473Z,10.05
2022-11-28T08:49:11.754Z,10.75
2022-11-28T08:51:39.009Z,10.75
2022-11-28T08:54:06.431Z,12.45
2022-11-28T08:56:34.172Z,11.82
2022-11-28T08:59:01.519Z,10.98
2022-11-28T09:01:29.229Z,12.55
2022-11-28T09:03:56.899Z,10.45
2022-11-28T09:06:25.075Z,10.93
2022-11-28T09:08:54.039Z,9.90
2022-11-28T09:11:22.853Z,9.70
2022-11-28T09:13:50.466Z,11.35
2022-11-28T09:16:18.720Z,10.32
2022-11-28T09:18:46.179Z,12.63
2022-11-28T09:21:15.419Z,13.45
2022-11-28T09:23:44.503Z,10.82
2022-11-28T09:26:15.321Z,10.18
2022-11-28T09:28:43.258Z,9.88
2022-11-28T09:31:12.659Z,8.35
2022-11-28T09:33:40.726Z,9.35
2022-11-28T09:36:10.514Z,7.68
2022-11-28T09:38:38.104Z,9.38
2022-11-28T09:41:40.141Z,10.98
2022-11-28T09:44:31.413Z,11.82
2022-11-28T09:47:04.222Z,8.65
2022-11-28T09:49:41.516Z,8.93
2022-11-28T09:52:11.817Z,8.18
2022-11-28T09:54:53.297Z,7.75
2022-11-28T09:57:37.366Z,10.18
2022-11-28T10:00:06.715Z,6.53
2022-11-28T10:03:01.851Z,7.40
2022-11-28T10:05:41.094Z,6.97
2022-11-28T10:08:41.822Z,6.63
2022-11-28T10:11:30.615Z,7.78
2022-11-28T10:14:19.377Z,7.60
2022-11-28T10:17:24.862Z,7.53
2022-11-28T10:19:58.767Z,6.13
2022-11-28T10:22:35.793Z,6.60
2022-11-28T10:25:12.622Z,7.45
2022-11-28T10:27:41.241Z,7.35
2022-11-28T10:30:28.970Z,6.85
2022-11-28T10:33:19.696Z,6.43
2022-11-28T10:35:56.242Z,8.95
2022-11-28T10:38:27.350Z,7.95
2022-11-28T10:41:00.216Z,6.43
2022-11-28T10:43:44.184Z,9.10
2022-11-28T10:46:23.680Z,8.68
2022-11-28T10:48:53.829Z,6.82
2022-11-28T10:51:46.894Z,9.05
2022-11-28T10:54:45.153Z,6.45
2022-11-28T10:57:21.233Z,9.00
2022-11-28T11:00:15.151Z,7.25
2022-11-28T11:02:51.052Z,6.28
2022-11-28T11:05:27.080Z,6.22
2022-11-28T11:07:57.347Z,6.05
2022-11-28T11:10:39.063Z,8.15
2022-11-28T11:13:26.382Z,8.27
2022-11-28T11:16:00.604Z,6.57
2022-11-28T11:18:32.421Z,6.18
2022-11-28T11:21:16.135Z,7.35
2022-11-28T11:23:44.675Z,9.45
2022-11-28T11:26:29.629Z,7.97
2022-11-28T11:28:56.971Z,7.90
2022-11-28T11:31:31.382Z,7.57
2022-11-28T11:34:06.641Z,6.68
2022-11-28T11:36:36.490Z,6.75
2022-11-28T11:39:10.902Z,7.55
2022-11-28T11:41:44.212Z,9.65
2022-11-28T11:44:14.532Z,7.43
2022-11-28T11:46:54.884Z,6.28
2022-11-28T11:49:49.304Z,19.63
2022-11-28T11:52:25.580Z,36.15
2022-11-28T11:55:02.317Z,27.73
2022-11-28T11:57:44.383Z,33.90
2022-11-28T12:00:37.195Z,42.17
2022-11-28T12:03:17.408Z,42.20
2022-11-28T12:06:13.696Z,47.75
2022-11-28T12:08:52.977Z,37.15
2022-11-28T12:11:20.380Z,36.80
2022-11-28T12:13:48.991Z,38.80
2022-11-28T12:16:45.372Z,30.58
2022-11-28T12:19:22.676Z,32.20
2022-11-28T12:21:56.167Z,33.08
2022-11-28T12:24:37.573Z,28.40
2022-11-28T12:27:20.533Z,24.92
2022-11-28T12:30:02.947Z,22.95
2022-11-28T12:32:41.372Z,20.05
2022-11-28T12:35:31.146Z,20.77
2022-11-28T12:38:19.926Z,22.27
2022-11-28T12:41:21.454Z,18.73
2022-11-28T12:44:08.960Z,19.73
2022-11-28T12:47:01.239Z,19.60
2022-11-28T12:49:52.350Z,18.95
2022-11-28T12:52:58.154Z,16.40
2022-11-28T12:55:51.722Z,16.85
2022-11-28T13:01:14.530Z,13.68
2022-11-28T13:04:02.651Z,15.95
2022-11-28T13:06:48.703Z,16.27
2022-11-28T13:09:27.917Z,15.43
2022-11-28T13:12:22.556Z,12.77
2022-11-28T13:15:00.810Z,13.45
2022-11-28T13:17:30.796Z,13.27
2022-11-28T13:20:29.574Z,12.38
2022-11-28T13:22:59.758Z,12.60
2022-11-28T13:25:33.138Z,14.18
2022-11-28T13:28:06.755Z,13.10
2022-11-28T13:31:07.271Z,11.25
2022-11-28T13:33:49.936Z,11.60
2022-11-28T13:39:35.823Z,11.98
2022-11-28T13:43:02.375Z,9.82
2022-11-28T13:45:32.454Z,10.68
2022-11-28T13:48:01.102Z,14.90
2022-11-28T13:50:28.638Z,12.00
2022-11-28T13:53:10.342Z,11.82
2022-11-28T13:55:47.369Z,11.63
2022-11-28T13:58:14.620Z,10.20
2022-11-28T14:00:42.380Z,9.95
2022-11-28T14:03:20.750Z,10.95
2022-11-28T14:05:56.643Z,12.68
2022-11-28T14:08:35.647Z,9.30
2022-11-28T14:11:11.386Z,14.20
2022-11-28T14:13:53.258Z,9.68
2022-11-28T14:16:27.710Z,10.55
2022-11-28T14:19:21.712Z,8.18
2022-11-28T14:22:01.338Z,8.95
2022-11-28T14:24:47.577Z,10.85
2022-11-28T14:27:28.024Z,9.25
2022-11-28T14:29:58.021Z,9.77
2022-11-28T14:32:38.695Z,9.90
2022-11-28T14:35:16.370Z,9.35
2022-11-28T14:37:55.466Z,9.38
2022-11-28T14:40:56.820Z,10.80
2022-11-28T14:43:24.512Z,8.23
2022-11-28T14:45:52.972Z,12.80
2022-11-28T14:48:23.334Z,9.02
2022-11-28T14:50:59.307Z,9.57
2022-11-28T14:53:37.305Z,9.27
2022-11-28T14:56:13.675Z,9.25
2022-11-28T14:58:47.300Z,10.00
2022-11-28T15:01:33.448Z,9.23
2022-11-28T15:04:35.340Z,6.90
2022-11-28T15:07:08.178Z,7.03
2022-11-28T15:09:47.062Z,7.28
2022-11-28T15:12:29.375Z,9.40
2022-11-28T15:14:58.236Z,6.57
2022-11-28T15:17:32.527Z,7.85
2022-11-28T15:20:18.500Z,8.63
2022-11-28T15:22:46.696Z,8.65
2022-11-28T15:25:35.559Z,10.70
2022-11-28T15:28:14.653Z,8.48
2022-11-28T15:30:47.918Z,8.52
2022-11-28T15:33:15.652Z,9.45
2022-11-28T15:36:23.844Z,8.50
2022-11-28T15:38:51.573Z,8.75
2022-11-28T15:41:27.110Z,9.00
2022-11-28T15:43:56.664Z,7.68
2022-11-28T15:46:32.862Z,7.55
2022-11-28T15:49:01.822Z,7.88
2022-11-28T15:51:32.787Z,8.48
2022-11-28T15:54:03.350Z,7.90
2022-11-28T15:56:30.793Z,8.75
2022-11-28T15:58:58.291Z,7.88
2022-11-28T16:01:27.880Z,8.55
2022-11-28T16:04:05.857Z,6.80
2022-11-28T16:06:38.351Z,8.27
2022-11-28T16:09:35.437Z,9.25
2022-11-28T16:12:05.224Z,7.93
2022-11-28T16:14:42.817Z,7.70
2022-11-28T16:17:20.588Z,8.30
2022-11-28T16:19:51.529Z,8.75
2022-11-28T16:22:20.772Z,9.55
2022-11-28T16:24:51.054Z,7.30
2022-11-28T16:27:31.964Z,6.90
2022-11-28T16:30:00.812Z,7.82
2022-11-28T16:32:39.401Z,8.10
2022-11-28T16:35:12.414Z,8.60
2022-11-28T16:37:39.798Z,9.30
2022-11-28T16:40:15.056Z,10.23
2022-11-28T16:42:42.502Z,7.45
2022-11-28T16:45:22.070Z,7.90
2022-11-28T16:48:00.348Z,7.15
2022-11-28T16:50:27.952Z,8.50
2022-11-28T16:52:57.747Z,8.65
2022-11-28T16:55:32.317Z,6.93
2022-11-28T16:58:07.427Z,7.63
2022-11-28T17:00:35.821Z,10.30
2022-11-28T17:03:04.159Z,7.88
2022-11-28T17:05:32.046Z,7.68
2022-11-28T17:08:01.586Z,7.38
2022-11-28T17:10:29.022Z,7.63
2022-11-28T17:12:56.344Z,7.32
2022-11-28T17:15:23.644Z,7.82
2022-11-28T17:17:50.942Z,7.72
2022-11-28T17:20:18.253Z,8.52
2022-11-28T17:22:51.143Z,8.70
2022-11-28T17:25:21.061Z,10.90
2022-11-28T17:27:48.423Z,8.68
2022-11-28T17:30:17.721Z,8.48
2022-11-28T17:32:47.149Z,9.73
2022-11-28T17:35:29.724Z,9.95
2022-11-28T17:37:57.084Z,11.73
2022-11-28T17:40:33.463Z,8.48
2022-11-28T17:43:01.341Z,12.18
2022-11-28T17:45:32.542Z,9.43
2022-11-28T17:47:59.934Z,9.35
2022-11-28T17:50:28.602Z,9.30
2022-11-28T17:52:56.123Z,10.32
2022-11-28T17:55:23.603Z,9.75
2022-11-28T17:57:50.963Z,11.75
2022-11-28T18:00:18.845Z,8.77
2022-11-28T18:02:46.190Z,11.52
2022-11-28T18:05:13.622Z,11.73
2022-11-28T18:07:40.921Z,12.43
2022-11-28T18:10:12.183Z,9.68
2022-11-28T18:12:39.781Z,8.20
2022-11-28T18:15:10.539Z,7.88
2022-11-28T18:17:38.748Z,8.18
2022-11-28T18:20:06.879Z,10.77
2022-11-28T18:22:34.290Z,10.57
2022-11-28T18:25:01.862Z,10.32
2022-11-28T18:27:29.642Z,12.13
2022-11-28T18:29:56.924Z,8.05
2022-11-28T18:32:24.266Z,12.35
2022-11-28T18:34:51.629Z,10.43
2022-11-28T18:37:19.040Z,11.73
2022-11-28T18:39:46.654Z,12.35
2022-11-28T18:42:14.126Z,9.25
2022-11-28T18:44:41.386Z,11.82
2022-11-28T18:47:09.459Z,9.50
2022-11-28T18:49:36.798Z,8.07
2022-11-28T18:52:04.316Z,8.23
2022-11-28T18:54:33.085Z,8.02
2022-11-28T18:57:00.730Z,8.52
2022-11-28T18:59:28.703Z,9.95
2022-11-28T19:01:56.310Z,7.80
2022-11-28T19:04:23.969Z,8.75
2022-11-28T19:06:51.429Z,8.40
2022-11-28T19:09:22.280Z,10.70
2022-11-28T19:11:49.688Z,8.82
2022-11-28T19:14:19.631Z,12.30
2022-11-28T19:16:49.364Z,11.73
2022-11-28T19:19:17.850Z,8.55
2022-11-28T19:21:45.502Z,9.90
2022-11-28T19:24:13.663Z,7.97
2022-11-28T19:26:41.410Z,11.77
2022-11-28T19:29:08.819Z,11.68
2022-11-28T19:31:37.881Z,11.43
2022-11-28T19:34:12.676Z,10.93
2022-11-28T19:36:51.214Z,7.53
2022-11-28T19:39:24.462Z,11.63
2022-11-28T19:41:53.427Z,7.85
2022-11-28T19:44:22.004Z,10.88
2022-11-28T19:46:50.323Z,9.30
2022-11-28T19:49:21.832Z,9.43
2022-11-28T19:51:50.191Z,10.38
2022-11-28T19:54:21.474Z,9.57
2022-11-28T19:56:49.997Z,9.75
2022-11-28T19:59:19.335Z,10.95
2022-11-28T20:01:49.919Z,11.07
2022-11-28T20:04:17.655Z,9.95
2022-11-28T20:06:44.993Z,9.85
2022-11-28T20:09:13.947Z,10.18
2022-11-28T20:11:45.234Z,10.98
2022-11-28T20:14:16.480Z,10.50
2022-11-28T20:16:44.580Z,11.18
2022-11-28T20:19:14.279Z,10.18
2022-11-28T20:21:43.622Z,11.82
2022-11-28T20:24:11.037Z,10.73
2022-11-28T20:26:41.519Z,8.38
2022-11-28T20:29:13.078Z,11.27
2022-11-28T20:31:45.845Z,9.60
2022-11-28T20:34:17.420Z,8.95
2022-11-28T20:36:50.292Z,9.20
2022-11-28T20:39:19.676Z,10.23
2022-11-28T20:41:49.963Z,12.18
2022-11-28T20:44:19.026Z,9.25
2022-11-28T20:46:46.824Z,10.18
2022-11-28T20:49:15.352Z,8.73
2022-11-28T20:51:43.026Z,12.43
2022-11-28T20:54:13.235Z,9.57
2022-11-28T20:57:12.706Z,9.95
2022-11-28T20:59:29.238Z,8.63
2022-11-28T21:01:56.665Z,8.95
2022-11-28T21:04:24.112Z,8.82
2022-11-28T21:06:51.433Z,10.15
2022-11-28T21:09:20.576Z,11.02
2022-11-28T21:11:58.714Z,10.43
2022-11-28T21:14:30.040Z,9.88
2022-11-28T21:16:58.327Z,9.23
2022-11-28T21:19:26.002Z,8.82
2022-11-28T21:21:53.396Z,8.98
2022-11-28T21:24:20.790Z,9.93
2022-11-28T21:26:53.456Z,8.48
2022-11-28T21:29:22.621Z,10.98
2022-11-28T21:31:49.943Z,9.23
2022-11-28T21:34:19.032Z,8.98
2022-11-28T21:36:46.597Z,8.98
2022-11-28T21:39:16.922Z,8.10
2022-11-28T21:41:44.189Z,9.75
2022-11-28T21:44:11.561Z,10.10
2022-11-28T21:46:39.191Z,8.90
2022-11-28T21:49:06.452Z,8.98
2022-11-28T21:51:39.251Z,10.90
2022-11-28T21:54:06.770Z,9.13
2022-11-28T21:56:34.407Z,8.55
2022-11-28T21:59:01.836Z,9.40
2022-11-28T22:01:29.744Z,10.00
2022-11-28T22:04:02.323Z,9.18
2022-11-28T22:06:31.800Z,8.82
2022-11-28T22:09:08.736Z,10.85
2022-11-28T22:11:38.277Z,9.10
2022-11-28T22:14:06.045Z,9.27
2022-11-28T22:16:33.754Z,10.45
2022-11-28T22:19:01.288Z,10.45
2022-11-28T22:21:51.243Z,8.23
2022-11-28T22:24:16.008Z,9.77
2022-11-28T22:26:44.387Z,10.38
2022-11-28T22:29:12.879Z,9.52
2022-11-28T22:31:41.538Z,9.68
2022-11-28T22:34:09.740Z,7.80
2022-11-28T22:36:38.077Z,8.82
2022-11-28T22:39:06.250Z,9.02
2022-11-28T22:41:33.942Z,10.18
2022-11-28T22:44:02.089Z,10.27
2022-11-28T22:46:31.377Z,10.93
2022-11-28T22:49:01.445Z,10.10
2022-11-28T22:51:29.918Z,9.13
2022-11-28T22:54:00.448Z,8.75
2022-11-28T22:56:30.991Z,9.23
2022-11-28T22:59:00.440Z,8.35
2022-11-28T23:01:30.559Z,9.38
2022-11-28T23:03:58.521Z,11.77
2022-11-28T23:06:29.268Z,8.07
2022-11-28T23:09:01.457Z,10.98
2022-11-28T23:11:32.705Z,11.05
2022-11-28T23:14:01.866Z,11.85
2022-11-28T23:16:32.552Z,8.55
2022-11-28T23:19:02.259Z,9.73
2022-11-28T23:21:32.160Z,11.20
2022-11-28T23:23:59.598Z,10.65
2022-11-28T23:26:30.444Z,9.40
2022-11-28T23:29:00.557Z,9.10
2022-11-28T23:31:30.860Z,12.82
2022-11-28T23:33:58.675Z,10.70
2022-11-28T23:36:28.975Z,9.90
2022-11-28T23:39:02.159Z,9.90
2022-11-28T23:43:58.008Z,9.32
2022-11-28T23:46:26.925Z,9.93
2022-11-28T23:48:54.446Z,11.80
2022-11-28T23:51:23.916Z,11.40
2022-11-28T23:53:51.498Z,11.45
2022-11-28T23:56:25.169Z,11.50
2022-11-28T23:58:53.635Z,10.57
